Time;durP1;ratioP1;P1;durP2;ratioP2;P2;SDS_P1;SDS_P2;PMS_P1;PMS_P2;Temp;Humidity;BMP_temperature;BMP_pressure;BME280_temperature;BME280_humidity;BME280_pressure;Samples;Min_cycle;Max_cycle;Signal;HPM_P1;HPM_P2
2022/12/21 00:02:07;;;;;;;21.80;12.60;;;5.40;99.90;4.50;99830;;;;572797;250;24078;-78
2022/12/21 00:04:35;;;;;;;24.70;12.27;;;5.40;99.90;4.50;99828;;;;573098;250;24142;-78
2022/12/21 00:07:03;;;;;;;24.10;12.67;;;5.40;99.90;4.50;99824;;;;573395;250;24429;-75
2022/12/21 00:09:31;;;;;;;27.90;14.90;;;5.40;99.90;4.60;99824;;;;572767;246;24106;-79
2022/12/21 00:11:59;;;;;;;25.07;13.17;;;5.40;99.90;4.60;99825;;;;572945;250;24136;-75
2022/12/21 00:14:26;;;;;;;30.03;13.80;;;5.40;99.90;4.60;99820;;;;572754;250;24089;-74
2022/12/21 00:16:54;;;;;;;28.00;13.33;;;5.40;99.90;4.60;99807;;;;572897;250;24091;-73
2022/12/21 00:19:22;;;;;;;26.73;13.43;;;5.40;99.90;4.60;99802;;;;573920;249;24096;-73
2022/12/21 00:21:51;;;;;;;24.77;12.73;;;5.50;99.90;4.60;99805;;;;573737;250;24081;-73
2022/12/21 00:24:19;;;;;;;28.53;13.00;;;5.40;99.90;4.60;99807;;;;573655;250;24097;-76
2022/12/21 00:26:49;;;;;;;28.20;13.70;;;5.40;99.90;4.60;99795;;;;573556;250;24087;-76
2022/12/21 00:29:18;;;;;;;26.07;12.97;;;5.40;99.90;4.60;99798;;;;565078;250;24100;-79
2022/12/21 00:31:43;;;;;;;23.97;13.20;;;5.40;99.90;4.60;99794;;;;562375;250;24080;-76
2022/12/21 00:34:10;;;;;;;25.47;13.97;;;5.40;99.90;4.60;99792;;;;573849;250;24073;-77
2022/12/21 00:36:38;;;;;;;30.87;13.47;;;5.40;99.90;4.50;99797;;;;571020;250;24099;-79
2022/12/21 00:39:06;;;;;;;26.90;14.80;;;5.40;99.90;4.60;99800;;;;561858;250;24143;-77
2022/12/21 00:41:35;;;;;;;25.87;13.73;;;5.40;99.90;4.60;99794;;;;573523;250;24147;-79
2022/12/21 00:44:03;;;;;;;30.93;14.10;;;5.40;99.90;4.50;99796;;;;573429;250;24092;-74
2022/12/21 00:46:31;;;;;;;29.57;13.73;;;5.40;99.90;4.50;99788;;;;573522;250;24069;-74
2022/12/21 00:48:59;;;;;;;27.40;13.07;;;5.40;99.90;4.50;99793;;;;573439;250;24097;-72
2022/12/21 00:51:27;;;;;;;29.77;15.07;;;5.30;99.90;4.50;99789;;;;573384;250;24115;-72
2022/12/21 00:53:55;;;;;;;27.53;13.17;;;5.30;99.90;4.50;99783;;;;570676;250;25136;-79
2022/12/21 00:56:26;;;;;;;30.17;13.40;;;5.30;99.90;4.40;99795;;;;570497;250;24124;-80
2022/12/21 00:58:50;;;;;;;23.57;12.17;;;5.30;99.90;4.40;99786;;;;563425;250;24142;-74
2022/12/21 01:01:21;;;;;;;29.20;13.73;;;5.30;99.90;4.40;99792;;;;570582;250;24107;-76
2022/12/21 01:03:53;;;;;;;30.03;14.20;;;5.20;99.90;4.40;99782;;;;573188;250;25128;-81
2022/12/21 01:06:18;;;;;;;31.73;14.63;;;5.20;99.90;4.40;99783;;;;558953;250;25162;-79
2022/12/21 01:08:45;;;;;;;33.20;14.37;;;5.20;99.90;4.30;99780;;;;560475;250;24117;-80
2022/12/21 01:11:16;;;;;;;27.03;13.57;;;5.20;99.90;4.30;99777;;;;573269;250;24110;-80
2022/12/21 01:13:45;;;;;;;30.03;15.80;;;5.20;99.90;4.30;99786;;;;563226;250;24171;-81
2022/12/21 01:16:12;;;;;;;30.47;14.97;;;5.20;99.90;4.30;99778;;;;559059;250;24129;-80
2022/12/21 01:18:44;;;;;;;26.57;14.13;;;5.10;99.90;4.30;99774;;;;561008;250;24085;-77
2022/12/21 01:21:08;;;;;;;31.70;14.03;;;5.20;99.90;4.30;99767;;;;561805;250;24081;-73
2022/12/21 01:23:39;;;;;;;32.17;13.60;;;5.20;99.90;4.30;99770;;;;570687;250;24105;-77
2022/12/21 01:26:05;;;;;;;26.97;12.63;;;5.20;99.90;4.30;99760;;;;573297;250;24104;-74
2022/12/21 01:28:33;;;;;;;25.90;13.40;;;5.20;99.90;4.30;99768;;;;564719;250;24096;-79
2022/12/21 01:31:03;;;;;;;34.07;15.60;;;5.20;99.90;4.30;99765;;;;573968;249;24095;-75
2022/12/21 01:33:31;;;;;;;26.63;14.60;;;5.20;99.90;4.30;99766;;;;573992;250;24092;-73
2022/12/21 01:36:05;;;;;;;26.63;13.43;;;5.20;99.90;4.30;99769;;;;565375;250;24181;-74
2022/12/21 01:38:33;;;;;;;28.10;13.37;;;5.20;99.90;4.30;99772;;;;565208;250;24137;-76
2022/12/21 01:41:01;;;;;;;27.37;14.07;;;5.10;99.90;4.30;99772;;;;565143;250;24093;-77
2022/12/21 01:43:46;;;;;;;30.70;13.17;;;5.10;99.90;4.20;99766;;;;573738;250;24093;-76
2022/12/21 01:46:17;;;;;;;31.57;14.03;;;5.10;99.90;4.20;99760;;;;564825;250;24107;-76
2022/12/21 01:48:45;;;;;;;34.97;15.93;;;5.00;99.90;4.10;99767;;;;573486;250;24107;-74
2022/12/21 01:51:13;;;;;;;29.00;14.50;;;4.90;99.90;4.10;99767;;;;570493;250;24093;-76
2022/12/21 01:53:57;;;;;;;28.93;14.63;;;4.90;99.90;4.10;99769;;;;573339;250;25176;-72
2022/12/21 01:56:25;;;;;;;30.03;13.80;;;4.80;99.90;4.00;99762;;;;570775;250;24097;-75
2022/12/21 01:58:53;;;;;;;32.30;14.93;;;4.80;99.90;4.00;99764;;;;570537;250;25140;-76
2022/12/21 02:01:21;;;;;;;30.67;14.43;;;4.80;99.90;4.00;99759;;;;573417;250;24109;-78
2022/12/21 02:03:52;;;;;;;30.87;15.13;;;4.80;99.90;4.00;99760;;;;573463;250;24116;-77
2022/12/21 02:06:38;;;;;;;29.87;15.00;;;4.80;99.90;3.90;99742;;;;570988;250;24088;-73
2022/12/21 02:09:06;;;;;;;30.30;14.47;;;4.80;99.90;3.90;99751;;;;573027;246;24119;-75
2022/12/21 02:11:33;;;;;;;29.93;14.87;;;4.80;99.90;3.90;99760;;;;573079;250;24111;-71
2022/12/21 02:14:01;;;;;;;33.47;16.30;;;4.80;99.90;3.90;99755;;;;572863;250;24115;-74
2022/12/21 02:16:30;;;;;;;32.80;15.93;;;4.80;99.90;3.90;99757;;;;573027;250;24116;-70
2022/12/21 02:19:24;;;;;;;26.07;14.23;;;4.80;99.90;3.90;99753;;;;569820;250;24111;-72
2022/12/21 02:21:52;;;;;;;28.20;13.90;;;4.80;99.90;3.90;99749;;;;560237;250;24130;-77
2022/12/21 02:24:56;;;;;;;29.73;14.80;;;4.80;99.90;3.90;99733;;;;551124;250;24133;-70
2022/12/21 02:27:43;;;;;;;30.13;13.73;;;4.80;99.90;3.90;99729;;;;564172;250;24121;-72
2022/12/21 02:30:17;;;;;;;27.70;14.23;;;4.80;99.90;3.90;99722;;;;564264;250;24083;-72
2022/12/21 02:33:02;;;;;;;32.83;14.27;;;4.70;99.90;3.90;99725;;;;564570;250;24119;-71
2022/12/21 02:35:45;;;;;;;32.83;14.87;;;4.70;99.90;3.90;99723;;;;564256;250;24135;-75
2022/12/21 02:38:49;;;;;;;29.33;14.97;;;4.70;99.90;3.90;99723;;;;564650;250;24132;-71
2022/12/21 02:41:42;;;;;;;44.92;24.50;;;4.70;99.90;3.90;99727;;;;560121;249;46218;-72
2022/12/21 02:44:24;;;;;;;37.50;18.97;;;4.70;99.90;3.90;99732;;;;566003;250;24135;-69
2022/12/21 02:47:04;;;;;;;32.20;15.80;;;4.70;99.90;3.80;99730;;;;573683;250;24122;-70
2022/12/21 02:49:44;;;;;;;44.72;24.58;;;4.70;99.90;3.80;99730;;;;565977;250;35305;-72
2022/12/21 02:52:33;;;;;;;45.78;26.75;;;4.60;99.90;3.80;99725;;;;560043;250;35502;-73
2022/12/21 02:55:05;;;;;;;35.73;18.30;;;4.60;99.90;3.80;99727;;;;564980;250;24143;-72
2022/12/21 02:57:35;;;;;;;38.17;16.23;;;4.60;99.90;3.80;99728;;;;563471;250;24135;-71
2022/12/21 03:00:07;;;;;;;30.67;15.40;;;4.60;99.90;3.70;99734;;;;573590;250;24090;-71
2022/12/21 03:02:40;;;;;;;31.60;15.67;;;4.60;99.90;3.70;99731;;;;560782;250;24097;-72
2022/12/21 03:05:32;;;;;;;34.77;14.53;;;4.60;99.90;3.70;99723;;;;565001;249;24089;-71
2022/12/21 03:08:03;;;;;;;26.23;14.70;;;4.60;99.90;3.70;99709;;;;572635;246;24146;-73
2022/12/21 03:10:43;;;;;;;28.67;15.27;;;4.60;99.90;3.70;99696;;;;569754;250;24088;-72
2022/12/21 03:13:35;;;;;;;23.77;13.83;;;4.50;99.90;3.70;99712;;;;565243;250;25139;-78
2022/12/21 03:16:27;;;;;;;27.83;14.20;;;4.50;99.90;3.70;99709;;;;565090;250;24089;-78
2022/12/21 03:19:13;;;;;;;23.97;13.33;;;4.50;99.90;3.70;99707;;;;564650;250;24084;-79
2022/12/21 03:21:41;;;;;;;27.67;13.87;;;4.50;99.90;3.70;99699;;;;561445;250;24178;-81
2022/12/21 03:24:17;;;;;;;23.63;14.00;;;4.50;99.90;3.70;99697;;;;564939;250;24206;-72
2022/12/21 03:26:54;;;;;;;25.73;12.23;;;4.50;99.90;3.70;99700;;;;573182;250;24104;-73
2022/12/21 03:29:22;;;;;;;24.43;12.93;;;4.50;99.90;3.70;99711;;;;574139;250;24144;-80
2022/12/21 03:31:49;;;;;;;28.97;13.13;;;4.50;99.90;3.70;99717;;;;571622;250;24106;-77
2022/12/21 03:34:20;;;;;;;26.83;13.60;;;4.50;99.90;3.70;99705;;;;561528;250;24111;-81
2022/12/21 03:36:48;;;;;;;24.30;12.37;;;4.50;99.90;3.70;99693;;;;573664;250;24111;-82
2022/12/21 03:39:16;;;;;;;23.63;13.33;;;4.60;99.90;3.70;99692;;;;560743;250;25137;-81
2022/12/21 03:41:44;;;;;;;28.60;13.07;;;4.60;99.90;3.70;99682;;;;570984;250;24114;-82
2022/12/21 03:44:11;;;;;;;28.83;14.20;;;4.60;99.90;3.80;99686;;;;561306;250;24138;-79
2022/12/21 03:46:48;;;;;;;33.35;19.92;;;4.60;99.90;3.80;99691;;;;566078;250;35285;-79
2022/12/21 03:49:18;;;;;;;35.90;19.73;;;4.60;99.90;3.80;99681;;;;560868;250;24103;-81
2022/12/21 03:51:58;;;;;;;22.90;13.50;;;4.70;99.90;3.80;99682;;;;562438;250;24099;-76
2022/12/21 03:55:03;;;;;;;29.37;13.47;;;4.70;99.90;3.80;99681;;;;566738;250;24197;-79
2022/12/21 03:57:31;;;;;;;29.47;12.97;;;4.70;99.90;3.90;99683;;;;566008;250;24189;-75
2022/12/21 03:59:59;;;;;;;27.30;13.23;;;4.70;99.90;3.90;99680;;;;565761;250;24101;-78
2022/12/21 04:02:54;;;;;;;26.43;13.47;;;4.70;99.90;3.90;99692;;;;559982;250;24108;-80
2022/12/21 04:05:24;;;;;;;25.00;13.23;;;4.80;99.90;3.90;99693;;;;565098;250;24132;-79
2022/12/21 04:07:52;;;;;;;30.53;13.60;;;4.80;99.90;3.90;99689;;;;573909;246;24167;-76
2022/12/21 04:10:20;;;;;;;32.63;14.27;;;4.80;99.90;4.00;99692;;;;566388;250;24106;-76
2022/12/21 04:12:48;;;;;;;32.17;13.90;;;4.80;99.90;3.90;99686;;;;573461;250;24171;-79
2022/12/21 04:15:16;;;;;;;22.47;12.83;;;4.80;99.90;3.90;99685;;;;573454;250;24106;-79
2022/12/21 04:17:44;;;;;;;24.90;13.73;;;4.80;99.90;3.90;99675;;;;571053;250;25137;-78
2022/12/21 04:20:13;;;;;;;27.83;12.80;;;4.80;99.90;3.90;99677;;;;570427;250;24135;-74
2022/12/21 04:28:28;;;;;;;32.20;14.60;;;4.70;99.90;3.80;99661;;;;570634;250;24124;-72
2022/12/21 04:31:00;;;;;;;32.77;14.03;;;4.70;99.90;3.80;99665;;;;560168;250;24159;-70
2022/12/21 04:33:25;;;;;;;33.57;14.97;;;4.60;99.90;3.80;99662;;;;572416;250;24113;-72
2022/12/21 04:38:39;;;;;;;28.17;14.87;;;4.60;99.90;3.80;99654;;;;564588;250;24131;-72
2022/12/21 04:41:07;;;;;;;25.87;12.67;;;4.60;99.90;3.80;99651;;;;560401;250;24093;-72
2022/12/21 04:43:38;;;;;;;34.50;15.57;;;4.60;99.90;3.70;99642;;;;564539;250;24129;-73
2022/12/21 04:46:05;;;;;;;32.77;14.40;;;4.60;99.90;3.80;99657;;;;570334;250;24092;-72
2022/12/21 04:48:37;;;;;;;28.47;12.87;;;4.60;99.90;3.80;99658;;;;570300;250;24107;-72
2022/12/21 04:51:05;;;;;;;34.27;14.67;;;4.60;99.90;3.80;99641;;;;572863;250;24099;-72
2022/12/21 04:53:34;;;;;;;28.87;14.53;;;4.60;99.90;3.80;99646;;;;560466;250;24221;-73
2022/12/21 04:56:02;;;;;;;26.33;14.17;;;4.70;99.90;3.80;99645;;;;564492;250;24119;-71
2022/12/21 04:58:31;;;;;;;34.17;15.20;;;4.60;99.90;3.90;99646;;;;573073;250;24094;-71
2022/12/21 05:00:58;;;;;;;33.13;14.47;;;4.70;99.90;3.90;99647;;;;572976;250;24149;-70
2022/12/21 05:03:26;;;;;;;32.70;15.07;;;4.70;99.90;3.90;99640;;;;573035;250;24104;-71
2022/12/21 05:05:55;;;;;;;29.77;14.50;;;4.80;99.90;3.90;99647;;;;574339;249;24099;-71
2022/12/21 05:08:24;;;;;;;26.17;13.90;;;4.80;99.90;4.00;99644;;;;573672;246;24136;-71
2022/12/21 05:10:51;;;;;;;27.57;14.87;;;4.80;99.90;4.00;99647;;;;573625;250;24100;-71
2022/12/21 05:13:19;;;;;;;30.80;16.57;;;4.80;99.90;4.00;99650;;;;573581;250;24093;-73
2022/12/21 05:15:47;;;;;;;35.73;15.87;;;4.90;99.90;4.00;99647;;;;573304;250;25136;-70
2022/12/21 05:18:16;;;;;;;29.47;13.90;;;4.90;99.90;4.10;99652;;;;573450;250;24101;-72
2022/12/21 05:20:44;;;;;;;31.43;15.17;;;4.90;99.90;4.10;99655;;;;573286;250;24136;-71
2022/12/21 05:23:12;;;;;;;33.43;14.80;;;4.90;99.90;4.10;99648;;;;573305;250;24074;-72
2022/12/21 05:25:40;;;;;;;27.23;13.97;;;4.90;99.90;4.10;99640;;;;573194;250;24099;-74
2022/12/21 05:28:08;;;;;;;29.00;16.43;;;4.90;99.90;4.10;99635;;;;573289;250;24112;-74
2022/12/21 05:30:39;;;;;;;33.90;15.57;;;5.00;99.90;4.20;99637;;;;573182;250;24171;-74
2022/12/21 05:33:03;;;;;;;29.83;14.43;;;5.00;99.90;4.20;99629;;;;561426;250;24126;-71
2022/12/21 05:35:31;;;;;;;36.40;15.07;;;5.00;99.90;4.20;99634;;;;573206;250;24147;-73
2022/12/21 05:37:59;;;;;;;35.13;14.93;;;5.00;99.90;4.20;99635;;;;573474;250;24116;-76
2022/12/21 05:40:27;;;;;;;34.17;14.67;;;5.00;99.90;4.20;99634;;;;573324;250;24101;-75
2022/12/21 05:42:55;;;;;;;31.30;14.33;;;5.10;99.90;4.20;99634;;;;573170;250;24123;-72
2022/12/21 05:45:23;;;;;;;30.80;15.13;;;5.10;99.90;4.20;99632;;;;564707;250;24125;-77
2022/12/21 05:47:51;;;;;;;32.07;15.67;;;5.10;99.90;4.20;99643;;;;564752;250;24159;-75
2022/12/21 05:50:19;;;;;;;32.67;15.97;;;5.10;99.90;4.20;99640;;;;573221;250;24096;-72
2022/12/21 05:52:47;;;;;;;29.73;14.77;;;5.00;99.90;4.20;99649;;;;573131;250;24151;-74
2022/12/21 05:55:15;;;;;;;31.20;14.63;;;5.00;99.90;4.20;99652;;;;573156;250;24111;-74
2022/12/21 05:57:42;;;;;;;35.40;15.63;;;5.00;99.90;4.20;99644;;;;572991;250;24171;-72
2022/12/21 06:00:11;;;;;;;33.80;14.97;;;5.00;99.90;4.10;99640;;;;573098;250;24085;-75
2022/12/21 06:02:42;;;;;;;39.73;16.80;;;5.00;99.90;4.10;99627;;;;564616;250;24091;-78
2022/12/21 06:05:06;;;;;;;31.77;15.77;;;5.00;99.90;4.10;99622;;;;564299;250;24111;-74
2022/12/21 06:07:34;;;;;;;33.87;14.77;;;5.00;99.90;4.10;99628;;;;564538;250;24098;-72
2022/12/21 06:10:02;;;;;;;32.07;14.63;;;5.00;99.90;4.10;99627;;;;573030;250;24155;-73
2022/12/21 06:12:30;;;;;;;33.33;16.07;;;5.00;99.90;4.10;99631;;;;573121;250;24093;-72
2022/12/21 06:14:59;;;;;;;28.90;14.70;;;5.00;99.90;4.10;99635;;;;558925;250;24101;-72
2022/12/21 06:17:27;;;;;;;38.27;15.23;;;5.00;99.90;4.10;99641;;;;574316;249;24106;-73
2022/12/21 06:19:57;;;;;;;28.70;14.57;;;5.00;99.90;4.10;99636;;;;560024;250;24130;-80
2022/12/21 06:22:23;;;;;;;33.40;14.30;;;5.00;99.90;4.10;99639;;;;565122;250;24093;-81
2022/12/21 06:24:51;;;;;;;31.90;14.90;;;4.90;99.90;4.10;99654;;;;565459;250;24118;-80
2022/12/21 06:27:19;;;;;;;30.17;14.80;;;4.90;99.90;4.10;99646;;;;573614;250;24093;-80
2022/12/21 06:29:48;;;;;;;24.37;13.63;;;4.90;99.90;4.10;99643;;;;573677;250;24106;-69
2022/12/21 06:32:16;;;;;;;38.17;16.13;;;4.90;99.90;4.10;99649;;;;573689;250;24138;-74
2022/12/21 06:34:44;;;;;;;31.77;15.43;;;4.90;99.90;4.10;99653;;;;573529;250;24086;-79
2022/12/21 06:37:12;;;;;;;34.43;15.57;;;4.90;99.90;4.00;99651;;;;573338;250;24116;-80
2022/12/21 06:39:40;;;;;;;35.70;15.83;;;4.90;99.90;4.00;99649;;;;573090;250;24100;-80
2022/12/21 06:42:07;;;;;;;32.57;16.33;;;4.90;99.90;4.00;99650;;;;572985;250;24099;-77
2022/12/21 06:44:36;;;;;;;30.60;16.60;;;4.90;99.90;4.00;99638;;;;572889;250;24135;-79
2022/12/21 06:47:04;;;;;;;32.10;15.57;;;4.80;99.90;4.00;99645;;;;573036;250;24079;-75
2022/12/21 06:49:32;;;;;;;32.60;16.03;;;4.90;99.90;4.00;99650;;;;572842;250;24175;-80
2022/12/21 06:52:00;;;;;;;30.17;15.10;;;4.80;99.90;4.00;99646;;;;564554;250;24082;-80
2022/12/21 06:54:29;;;;;;;36.57;16.23;;;4.80;99.90;4.00;99643;;;;572728;250;24133;-78
2022/12/21 06:56:56;;;;;;;35.03;15.77;;;4.80;99.90;4.00;99646;;;;564546;250;24193;-79
2022/12/21 06:59:24;;;;;;;36.00;17.00;;;4.80;99.90;3.90;99645;;;;572799;250;24096;-76
2022/12/21 07:01:52;;;;;;;34.17;17.40;;;4.80;99.90;3.90;99652;;;;572675;250;24121;-78
2022/12/21 07:04:21;;;;;;;29.37;15.37;;;4.80;99.90;3.90;99652;;;;572799;250;25128;-74
2022/12/21 07:06:49;;;;;;;33.67;15.07;;;4.80;99.90;3.90;99651;;;;564143;250;24085;-79
2022/12/21 07:09:17;;;;;;;33.33;14.40;;;4.80;99.90;3.90;99649;;;;572689;246;24188;-77
2022/12/21 07:11:46;;;;;;;33.97;15.83;;;4.80;99.90;3.90;99655;;;;565854;250;24097;-79
2022/12/21 07:14:17;;;;;;;44.23;20.43;;;4.80;99.90;3.90;99657;;;;572992;250;25128;-79
2022/12/21 07:16:41;;;;;;;53.43;27.57;;;4.80;99.90;3.90;99653;;;;572663;250;24108;-72
2022/12/21 07:19:09;;;;;;;33.93;14.97;;;4.80;99.90;3.90;99649;;;;573101;250;24135;-74
2022/12/21 07:21:37;;;;;;;35.07;16.67;;;4.80;99.90;3.90;99655;;;;573089;250;24108;-77
2022/12/21 07:24:08;;;;;;;30.57;15.63;;;4.70;99.90;3.90;99654;;;;564551;250;24190;-74
2022/12/21 07:26:33;;;;;;;33.53;15.37;;;4.70;99.90;3.90;99648;;;;564312;250;24131;-70
2022/12/21 07:29:01;;;;;;;26.57;13.80;;;4.70;99.90;3.80;99656;;;;574356;249;24152;-71
2022/12/21 07:31:29;;;;;;;29.67;14.33;;;4.70;99.90;3.90;99655;;;;574159;249;24097;-71
2022/12/21 07:33:57;;;;;;;27.23;14.40;;;4.70;99.90;3.90;99656;;;;573892;250;24108;-75
2022/12/21 07:36:25;;;;;;;31.23;14.00;;;4.70;99.90;3.90;99667;;;;573819;250;24111;-73
2022/12/21 07:38:54;;;;;;;26.67;12.87;;;4.70;99.90;3.90;99661;;;;573655;250;24066;-74
2022/12/21 07:41:21;;;;;;;26.90;13.43;;;4.70;99.90;3.90;99654;;;;573129;250;24308;-75
2022/12/21 07:43:49;;;;;;;29.10;13.03;;;4.70;99.90;3.90;99655;;;;573067;250;24148;-74
2022/12/21 07:46:17;;;;;;;22.87;13.67;;;4.80;99.90;3.90;99662;;;;564647;250;24126;-73
2022/12/21 07:48:45;;;;;;;25.63;12.83;;;4.80;99.90;4.00;99662;;;;572856;250;24177;-72
2022/12/21 07:51:13;;;;;;;25.53;13.27;;;4.80;99.90;4.00;99666;;;;573085;250;24123;-72
2022/12/21 07:53:41;;;;;;;24.43;12.73;;;4.80;99.90;4.00;99663;;;;564475;250;24084;-77
2022/12/21 07:56:12;;;;;;;23.47;13.20;;;4.80;99.90;4.00;99665;;;;564589;250;24101;-72
2022/12/21 07:58:39;;;;;;;28.70;12.80;;;4.90;99.90;4.00;99663;;;;561823;250;24120;-76
2022/12/21 08:01:09;;;;;;;28.23;15.63;;;4.90;99.90;4.00;99667;;;;572830;250;24163;-75
2022/12/21 08:03:39;;;;;;;38.57;19.23;;;4.90;99.90;4.10;99662;;;;558879;250;24113;-76
2022/12/21 08:06:06;;;;;;;29.80;18.13;;;4.90;99.90;4.20;99669;;;;572448;250;24101;-77
2022/12/21 08:08:31;;;;;;;25.83;14.60;;;5.00;99.90;4.20;99665;;;;569970;248;24112;-73
2022/12/21 08:10:59;;;;;;;22.43;13.13;;;5.00;99.90;4.20;99671;;;;573197;250;24161;-75
2022/12/21 08:13:29;;;;;;;22.03;12.83;;;5.00;99.90;4.20;99670;;;;573205;250;24137;-78
2022/12/21 08:16:03;;;;;;;23.23;12.30;;;5.10;99.90;4.30;99677;;;;564603;250;24140;-80
2022/12/21 08:18:32;;;;;;;21.30;11.30;;;5.10;99.90;4.30;99682;;;;572662;250;24144;-74
2022/12/21 08:21:00;;;;;;;22.83;12.50;;;5.10;99.90;4.30;99682;;;;572939;250;24081;-80
2022/12/21 08:23:29;;;;;;;17.73;10.63;;;5.10;99.90;4.30;99686;;;;564217;250;24078;-79
2022/12/21 08:26:03;;;;;;;19.00;10.57;;;5.10;99.90;4.30;99685;;;;570140;250;24111;-77
2022/12/21 08:28:31;;;;;;;25.93;12.13;;;5.20;99.90;4.30;99691;;;;569953;250;24103;-74
2022/12/21 08:31:05;;;;;;;20.27;11.37;;;5.20;99.90;4.30;99682;;;;564328;250;24093;-79
2022/12/21 08:33:32;;;;;;;21.57;11.80;;;5.20;99.90;4.30;99685;;;;560227;250;24109;-78
2022/12/21 08:36:01;;;;;;;20.50;10.07;;;5.20;99.90;4.40;99684;;;;564586;250;24111;-73
2022/12/21 08:38:29;;;;;;;16.00;9.93;;;5.20;99.90;4.40;99682;;;;572638;250;24087;-76
2022/12/21 08:40:57;;;;;;;23.23;12.07;;;5.20;99.90;4.40;99683;;;;565089;250;24128;-78
2022/12/21 08:43:25;;;;;;;18.57;9.93;;;5.20;99.90;4.40;99683;;;;567002;250;24102;-82
2022/12/21 08:45:53;;;;;;;19.97;10.83;;;5.30;99.90;4.40;99682;;;;564970;250;24091;-76
2022/12/21 08:48:21;;;;;;;17.03;9.97;;;5.30;99.90;4.40;99683;;;;573837;250;24078;-71
2022/12/21 08:50:52;;;;;;;17.07;10.63;;;5.30;99.90;4.50;99686;;;;564625;250;25148;-73
2022/12/21 08:53:20;;;;;;;22.60;10.77;;;5.30;99.90;4.50;99688;;;;573585;250;24121;-74
2022/12/21 08:55:50;;;;;;;17.30;8.80;;;5.30;99.90;4.50;99687;;;;573653;250;24131;-71
2022/12/21 08:58:22;;;;;;;21.50;10.27;;;5.30;99.90;4.50;99694;;;;564560;250;24099;-71
2022/12/21 09:00:46;;;;;;;17.20;10.17;;;5.40;99.90;4.50;99689;;;;564540;250;24089;-73
2022/12/21 09:03:18;;;;;;;17.27;9.70;;;5.40;99.90;4.50;99688;;;;573383;250;24089;-72
2022/12/21 09:05:42;;;;;;;23.23;11.30;;;5.40;99.90;4.60;99694;;;;573784;248;24154;-74
2022/12/21 09:08:10;;;;;;;21.50;11.27;;;5.40;99.90;4.60;99690;;;;573073;246;24104;-74
2022/12/21 09:10:38;;;;;;;16.57;10.37;;;5.40;99.90;4.60;99680;;;;572867;250;24194;-78
2022/12/21 09:13:06;;;;;;;18.70;10.93;;;5.40;99.90;4.60;99679;;;;573396;250;24096;-79
2022/12/21 09:15:33;;;;;;;22.83;10.60;;;5.40;99.90;4.60;99689;;;;573276;250;24081;-74
2022/12/21 09:18:02;;;;;;;22.73;11.07;;;5.50;99.90;4.60;99693;;;;564578;250;24109;-79
2022/12/21 09:20:29;;;;;;;18.30;11.23;;;5.50;99.90;4.70;99701;;;;573084;250;24181;-78
2022/12/21 09:22:57;;;;;;;20.23;11.83;;;5.50;99.90;4.70;99700;;;;573087;250;25200;-77
2022/12/21 09:25:25;;;;;;;18.97;10.90;;;5.50;99.90;4.70;99697;;;;573113;250;24096;-75
2022/12/21 09:27:57;;;;;;;19.57;10.17;;;5.50;99.90;4.60;99703;;;;573216;250;24136;-73
2022/12/21 09:30:22;;;;;;;22.37;11.17;;;5.40;99.90;4.60;99700;;;;572954;250;24093;-72
2022/12/21 09:32:50;;;;;;;19.27;11.07;;;5.40;99.90;4.60;99689;;;;573141;250;24094;-74
2022/12/21 09:35:18;;;;;;;21.87;11.80;;;5.50;99.90;4.60;99680;;;;573213;250;24148;-73
2022/12/21 09:37:48;;;;;;;26.83;13.07;;;5.40;99.90;4.60;99675;;;;573107;250;25109;-78
2022/12/21 09:40:18;;;;;;;25.20;12.07;;;5.40;99.90;4.60;99667;;;;564338;250;24113;-75
2022/12/21 09:43:06;;;;;;;20.30;10.67;;;5.40;99.90;4.60;99669;;;;560572;250;24157;-72
2022/12/21 09:45:59;;;;;;;16.13;9.53;;;5.40;99.90;4.60;99666;;;;564268;250;24160;-72
2022/12/21 09:48:30;;;;;;;17.73;9.97;;;5.50;99.90;4.60;99672;;;;563941;250;24101;-74
2022/12/21 09:51:06;;;;;;;21.40;11.17;;;5.40;99.90;4.70;99658;;;;568932;249;24134;-74
2022/12/21 09:53:34;;;;;;;18.93;10.53;;;5.50;99.90;4.70;99662;;;;561013;250;24154;-71
2022/12/21 09:56:02;;;;;;;18.97;9.63;;;5.60;99.90;4.80;99659;;;;571121;250;24098;-71
2022/12/21 09:58:33;;;;;;;19.07;10.63;;;5.60;99.90;4.80;99664;;;;564924;250;24085;-71
2022/12/21 10:01:13;;;;;;;18.00;10.00;;;5.70;99.90;4.90;99653;;;;573190;250;24126;-71
2022/12/21 10:03:41;;;;;;;16.30;9.07;;;5.70;99.90;4.90;99660;;;;573605;250;24147;-73
2022/12/21 10:06:27;;;;;;;17.93;10.17;;;5.70;99.90;4.90;99661;;;;564001;250;24125;-73
2022/12/21 10:09:28;;;;;;;16.93;9.43;;;5.80;99.90;4.90;99667;;;;559468;251;24100;-72
2022/12/21 10:12:16;;;;;;;17.73;9.80;;;5.80;99.90;4.90;99670;;;;564538;251;24107;-79
2022/12/21 10:14:59;;;;;;;21.37;14.32;;;5.70;99.90;4.90;99661;;;;559660;250;35337;-72
2022/12/21 10:17:42;;;;;;;20.67;11.37;;;5.70;99.90;5.00;99657;;;;569749;250;24096;-73
2022/12/21 10:20:34;;;;;;;17.07;10.43;;;5.80;99.90;5.00;99655;;;;573250;250;24093;-73
2022/12/21 10:23:02;;;;;;;18.13;9.90;;;5.80;99.90;5.00;99648;;;;564069;250;24092;-72
2022/12/21 10:25:38;;;;;;;15.40;9.57;;;5.90;99.90;5.10;99651;;;;572344;250;25131;-77
2022/12/21 10:28:59;;;;;;;16.87;10.70;;;5.90;99.90;5.10;99650;;;;560606;250;24114;-74
2022/12/21 10:31:38;;;;;;;19.97;10.13;;;6.00;99.90;5.20;99666;;;;572935;250;25142;-73
2022/12/21 10:34:24;;;;;;;18.63;10.60;;;6.00;99.90;5.20;99667;;;;570293;250;24175;-73
2022/12/21 10:36:54;;;;;;;19.33;10.63;;;6.00;99.90;5.20;99664;;;;560492;250;24100;-75
2022/12/21 10:39:22;;;;;;;17.90;10.70;;;6.00;99.90;5.20;99666;;;;561279;250;24114;-74
2022/12/21 10:41:51;;;;;;;18.87;10.17;;;6.20;99.90;5.30;99679;;;;564559;250;24167;-75
2022/12/21 10:44:20;;;;;;;19.37;11.10;;;6.20;99.90;5.40;99680;;;;560542;250;24203;-73
2022/12/21 10:46:48;;;;;;;19.10;10.47;;;6.20;99.90;5.40;99681;;;;572783;250;26247;-71
2022/12/21 10:49:16;;;;;;;19.30;11.13;;;6.20;99.90;5.40;99670;;;;572690;250;24089;-77
2022/12/21 10:51:45;;;;;;;21.40;11.03;;;6.30;99.90;5.40;99667;;;;563812;250;24180;-74
2022/12/21 10:54:13;;;;;;;25.87;12.40;;;6.30;99.90;5.40;99670;;;;572601;250;24122;-79
2022/12/21 10:56:45;;;;;;;18.47;10.80;;;6.30;99.90;5.40;99666;;;;572474;250;24085;-76
2022/12/21 10:59:18;;;;;;;19.97;10.87;;;6.30;99.90;5.50;99662;;;;559314;250;24094;-80
2022/12/21 11:01:46;;;;;;;18.30;9.80;;;6.30;99.90;5.50;99653;;;;558245;250;24100;-80
2022/12/21 11:04:23;;;;;;;16.97;10.30;;;6.30;99.90;5.60;99654;;;;565145;250;24089;-72
2022/12/21 11:07:24;;;;;;;23.30;12.40;;;6.50;99.90;5.70;99663;;;;573526;250;24080;-77
2022/12/21 11:10:01;;;;;;;22.57;11.47;;;6.50;99.90;5.70;99670;;;;573145;250;24107;-78
2022/12/21 11:12:29;;;;;;;21.77;11.60;;;6.50;99.90;5.70;99669;;;;564667;250;24142;-77
2022/12/21 11:14:57;;;;;;;18.17;11.03;;;6.50;99.90;5.60;99672;;;;564486;250;24098;-79
2022/12/21 11:17:31;;;;;;;16.47;9.77;;;6.50;99.90;5.60;99672;;;;573157;250;24110;-78
2022/12/21 11:20:07;;;;;;;21.27;12.37;;;6.40;99.90;5.50;99672;;;;572131;250;24172;-78
2022/12/21 11:22:35;;;;;;;19.97;11.73;;;6.30;99.90;5.50;99666;;;;564315;250;24097;-80
2022/12/21 11:25:03;;;;;;;22.30;12.43;;;6.30;99.90;5.50;99662;;;;569980;250;24126;-78
2022/12/21 11:27:31;;;;;;;24.47;12.80;;;6.30;99.90;5.50;99668;;;;565931;250;24109;-77
2022/12/21 11:30:06;;;;;;;17.13;10.17;;;6.30;99.90;5.50;99659;;;;570108;250;25187;-71
2022/12/21 11:32:37;;;;;;;20.83;11.43;;;6.30;99.90;5.60;99665;;;;563921;250;24131;-74
2022/12/21 11:35:05;;;;;;;22.87;11.27;;;6.30;99.90;5.60;99671;;;;572427;250;24093;-77
2022/12/21 11:37:39;;;;;;;18.73;10.67;;;6.40;99.90;5.50;99656;;;;572673;250;24109;-79
2022/12/21 11:40:22;;;;;;;24.07;12.13;;;6.30;99.90;5.50;99654;;;;564096;250;24137;-80
2022/12/21 11:43:00;;;;;;;19.13;11.10;;;6.30;99.90;5.50;99655;;;;564142;250;24158;-77
2022/12/21 11:45:49;;;;;;;20.53;10.43;;;6.20;99.90;5.50;99654;;;;564070;250;24107;-79